createdAt,value
2022-12-09T00:01:30.768Z,-0.64
2022-12-09T00:04:02.904Z,-0.65
2022-12-09T00:06:38.837Z,-0.65
2022-12-09T00:09:17.603Z,-0.68
2022-12-09T00:11:53.355Z,-0.65
2022-12-09T00:14:25.719Z,-0.67
2022-12-09T00:16:55.040Z,-0.68
2022-12-09T00:19:35.423Z,-0.68
2022-12-09T00:22:07.357Z,-0.72
2022-12-09T00:24:39.851Z,-0.71
2022-12-09T00:27:14.925Z,-0.77
2022-12-09T00:29:46.505Z,-0.78
2022-12-09T00:32:24.609Z,-0.82
2022-12-09T00:34:55.022Z,-0.82
2022-12-09T00:37:24.757Z,-0.84
2022-12-09T00:39:56.752Z,-0.86
2022-12-09T00:42:27.235Z,-0.86
2022-12-09T00:44:56.591Z,-0.88
2022-12-09T00:47:25.981Z,-0.89
2022-12-09T00:50:00.361Z,-0.90
2022-12-09T00:52:33.602Z,-0.93
2022-12-09T00:55:03.046Z,-0.92
2022-12-09T00:57:34.794Z,-0.95
2022-12-09T01:00:07.927Z,-0.96
2022-12-09T01:02:38.043Z,-0.95
2022-12-09T01:05:10.536Z,-0.96
2022-12-09T01:07:42.839Z,-0.96
2022-12-09T01:10:14.072Z,-0.97
2022-12-09T01:12:43.148Z,-0.96
2022-12-09T01:15:21.117Z,-0.96
2022-12-09T01:17:53.723Z,-0.96
2022-12-09T01:20:33.705Z,-0.95
2022-12-09T01:23:03.231Z,-0.97
2022-12-09T01:25:34.826Z,-0.95
2022-12-09T01:28:04.526Z,-1.00
2022-12-09T01:30:39.662Z,-1.02
2022-12-09T01:33:13.316Z,-1.03
2022-12-09T01:35:44.891Z,-1.05
2022-12-09T01:38:14.820Z,-1.09
2022-12-09T01:40:50.956Z,-1.12
2022-12-09T01:43:21.475Z,-1.13
2022-12-09T01:45:56.870Z,-1.16
2022-12-09T01:48:32.234Z,-1.17
2022-12-09T01:51:16.374Z,-1.19
2022-12-09T01:53:52.319Z,-1.20
2022-12-09T01:56:29.902Z,-1.20
2022-12-09T01:59:05.217Z,-1.22
2022-12-09T02:01:36.079Z,-1.20
2022-12-09T02:04:06.068Z,-1.23
2022-12-09T02:06:37.360Z,-1.22
2022-12-09T02:09:11.045Z,-1.24
2022-12-09T02:11:57.360Z,-1.26
2022-12-09T02:14:39.853Z,-1.29
2022-12-09T02:17:31.385Z,-1.29
2022-12-09T02:20:13.881Z,-1.29
2022-12-09T02:22:48.174Z,-1.30
2022-12-09T02:25:30.403Z,-1.33
2022-12-09T02:28:24.789Z,-1.36
2022-12-09T02:31:08.680Z,-1.41
2022-12-09T02:33:55.361Z,-1.44
2022-12-09T02:36:30.439Z,-1.47
2022-12-09T02:39:01.502Z,-1.50
2022-12-09T02:41:35.422Z,-1.48
2022-12-09T02:44:11.935Z,-1.50
2022-12-09T02:46:47.337Z,-1.50
2022-12-09T02:49:22.316Z,-1.50
2022-12-09T02:51:52.279Z,-1.51
2022-12-09T02:54:25.132Z,-1.48
2022-12-09T02:56:57.953Z,-1.48
2022-12-09T02:59:28.878Z,-1.47
2022-12-09T03:02:08.965Z,-1.45
2022-12-09T03:04:45.240Z,-1.44
2022-12-09T03:07:24.761Z,-1.44
2022-12-09T03:10:05.796Z,-1.44
2022-12-09T03:12:38.576Z,-1.47
2022-12-09T03:15:12.500Z,-1.44
2022-12-09T03:17:46.994Z,-1.43
2022-12-09T03:20:22.655Z,-1.43
2022-12-09T03:22:55.398Z,-1.43
2022-12-09T03:25:29.857Z,-1.40
2022-12-09T03:28:04.473Z,-1.43
2022-12-09T03:30:41.219Z,-1.43
2022-12-09T03:33:15.644Z,-1.44
2022-12-09T03:35:50.209Z,-1.43
2022-12-09T03:38:19.522Z,-1.41
2022-12-09T03:41:00.062Z,-1.44
2022-12-09T03:43:47.719Z,-1.41
2022-12-09T03:46:16.978Z,-1.40
2022-12-09T03:48:46.541Z,-1.39
2022-12-09T03:51:25.146Z,-1.39
2022-12-09T03:54:03.358Z,-1.39
2022-12-09T03:56:39.184Z,-1.36
2022-12-09T03:59:13.200Z,-1.33
2022-12-09T04:01:49.411Z,-1.34
2022-12-09T04:04:19.659Z,-1.32
2022-12-09T04:06:50.680Z,-1.36
2022-12-09T04:09:23.255Z,-1.36
2022-12-09T04:11:54.002Z,-1.40
2022-12-09T04:14:23.211Z,-1.43
2022-12-09T04:16:52.357Z,-1.48
2022-12-09T04:19:24.444Z,-1.50
2022-12-09T04:21:53.777Z,-1.52
2022-12-09T04:24:29.892Z,-1.54
2022-12-09T04:26:58.879Z,-1.55
2022-12-09T04:29:32.005Z,-1.58
2022-12-09T04:32:01.265Z,-1.62
2022-12-09T04:34:34.127Z,-1.67
2022-12-09T04:37:05.165Z,-1.69
2022-12-09T04:39:34.445Z,-1.76
2022-12-09T04:42:06.277Z,-1.80
2022-12-09T04:44:35.747Z,-1.82
2022-12-09T04:47:17.035Z,-1.89
2022-12-09T04:49:55.748Z,-1.89
2022-12-09T04:52:26.509Z,-1.90
2022-12-09T04:54:55.247Z,-1.92
2022-12-09T04:57:27.261Z,-1.96
2022-12-09T04:59:56.299Z,-2.02
2022-12-09T05:02:25.949Z,-2.05
2022-12-09T05:04:55.286Z,-2.06
2022-12-09T05:07:24.767Z,-2.06
2022-12-09T05:09:54.513Z,-2.05
2022-12-09T05:12:23.785Z,-2.06
2022-12-09T05:14:52.875Z,-2.06
2022-12-09T05:17:24.909Z,-2.10
2022-12-09T05:19:54.315Z,-2.13
2022-12-09T05:22:23.345Z,-2.17
2022-12-09T05:24:54.826Z,-2.17
2022-12-09T05:27:24.002Z,-2.21
2022-12-09T05:29:54.855Z,-2.25
2022-12-09T05:32:23.961Z,-2.24
2022-12-09T05:34:53.360Z,-2.27
2022-12-09T05:37:24.633Z,-2.28
2022-12-09T05:39:58.196Z,-2.25
2022-12-09T05:42:27.566Z,-2.25
2022-12-09T05:44:57.018Z,-2.25
2022-12-09T05:47:26.221Z,-2.27
2022-12-09T05:50:02.979Z,-2.31
2022-12-09T05:52:37.137Z,-2.33
2022-12-09T05:55:08.157Z,-2.34
2022-12-09T05:57:38.014Z,-2.35
2022-12-09T06:00:14.994Z,-2.34
2022-12-09T06:02:47.815Z,-2.33
2022-12-09T06:05:18.288Z,-2.28
2022-12-09T06:07:53.373Z,-2.28
2022-12-09T06:10:23.196Z,-2.28
2022-12-09T06:12:57.202Z,-2.30
2022-12-09T06:15:32.949Z,-2.31
2022-12-09T06:18:05.763Z,-2.31
2022-12-09T06:20:38.700Z,-2.37
2022-12-09T06:23:09.144Z,-2.38
2022-12-09T06:25:43.500Z,-2.38
2022-12-09T06:28:21.581Z,-2.38
2022-12-09T06:30:50.663Z,-2.37
2022-12-09T06:33:52.432Z,-2.38
2022-12-09T06:36:12.637Z,-2.42
2022-12-09T06:38:51.498Z,-2.41
2022-12-09T06:41:28.858Z,-2.42
2022-12-09T06:44:00.054Z,-2.40
2022-12-09T06:46:33.759Z,-2.41
2022-12-09T06:49:04.756Z,-2.42
2022-12-09T06:51:33.983Z,-2.40
2022-12-09T06:54:03.144Z,-2.40
2022-12-09T06:56:35.287Z,-2.42
2022-12-09T06:59:07.773Z,-2.41
2022-12-09T07:01:46.073Z,-2.42
2022-12-09T07:04:16.894Z,-2.41
2022-12-09T07:06:46.978Z,-2.45
2022-12-09T07:09:23.150Z,-2.47
2022-12-09T07:11:52.832Z,-2.48
2022-12-09T07:14:22.150Z,-2.42
2022-12-09T07:16:52.105Z,-2.42
2022-12-09T07:19:24.659Z,-2.44
2022-12-09T07:21:53.937Z,-2.40
2022-12-09T07:24:23.188Z,-2.38
2022-12-09T07:26:52.657Z,-2.35
2022-12-09T07:29:23.047Z,-2.33
2022-12-09T07:31:52.795Z,-2.31
2022-12-09T07:34:22.013Z,-2.25
2022-12-09T07:36:52.058Z,-2.25
2022-12-09T07:39:21.816Z,-2.21
2022-12-09T07:41:56.207Z,-2.16
2022-12-09T07:44:30.335Z,-2.10
2022-12-09T07:47:00.304Z,-2.05
2022-12-09T07:49:30.710Z,-1.90
2022-12-09T07:52:00.065Z,-1.80
2022-12-09T07:54:38.995Z,-1.58
2022-12-09T07:57:08.067Z,-1.43
2022-12-09T07:59:37.953Z,-1.26
2022-12-09T08:02:08.943Z,-1.11
2022-12-09T08:04:41.387Z,-0.93
2022-12-09T08:07:13.758Z,-0.82
2022-12-09T08:09:43.084Z,-0.69
2022-12-09T08:12:17.224Z,-0.58
2022-12-09T08:14:46.366Z,-0.51
2022-12-09T08:17:21.451Z,-0.43
2022-12-09T08:19:52.230Z,-0.39
2022-12-09T08:22:23.109Z,-0.30
2022-12-09T08:24:52.316Z,-0.25
2022-12-09T08:27:23.399Z,-0.22
2022-12-09T08:29:53.078Z,-0.13
2022-12-09T08:32:22.624Z,-0.09
2022-12-09T08:34:52.160Z,-0.05
2022-12-09T08:37:26.589Z,-0.01
2022-12-09T08:39:55.940Z,0.04
2022-12-09T08:42:30.560Z,0.06
2022-12-09T08:45:02.441Z,0.11
2022-12-09T08:47:32.114Z,0.14
2022-12-09T08:50:05.412Z,0.16
2022-12-09T08:52:40.340Z,0.25
2022-12-09T08:55:10.769Z,0.29
2022-12-09T08:57:41.004Z,0.33
2022-12-09T09:00:12.486Z,0.36
2022-12-09T09:02:43.231Z,0.42
2022-12-09T09:05:18.989Z,0.49
2022-12-09T09:07:53.319Z,0.54
2022-12-09T09:10:22.534Z,0.60
2022-12-09T09:12:51.487Z,0.67
2022-12-09T09:15:20.763Z,0.68
2022-12-09T09:17:52.414Z,0.72
2022-12-09T09:20:25.729Z,0.77
2022-12-09T09:23:02.813Z,0.77
2022-12-09T09:25:40.231Z,0.79
2022-12-09T09:28:12.976Z,0.85
2022-12-09T09:30:43.211Z,0.88
2022-12-09T09:33:12.445Z,0.92
2022-12-09T09:35:42.395Z,0.95
2022-12-09T09:38:21.899Z,0.96
2022-12-09T09:40:51.300Z,1.00
2022-12-09T09:43:24.463Z,1.03
2022-12-09T09:45:56.878Z,1.05
2022-12-09T09:48:31.871Z,1.07
2022-12-09T09:51:05.919Z,1.09
2022-12-09T09:53:43.838Z,1.12
2022-12-09T09:56:28.502Z,1.13
2022-12-09T09:59:14.313Z,1.16
2022-12-09T10:01:59.272Z,1.18
2022-12-09T10:04:39.375Z,1.20
2022-12-09T10:07:20.097Z,1.22
2022-12-09T10:10:03.074Z,1.26
2022-12-09T10:12:41.746Z,1.30
2022-12-09T10:15:16.948Z,1.37
2022-12-09T10:17:49.948Z,1.39
2022-12-09T10:20:22.450Z,1.44
2022-12-09T10:22:55.888Z,1.49
2022-12-09T10:25:27.483Z,1.50
2022-12-09T10:28:16.125Z,1.58
2022-12-09T10:30:45.926Z,1.61
2022-12-09T10:33:26.836Z,1.65
2022-12-09T10:35:56.932Z,1.70
2022-12-09T10:38:41.934Z,1.75
2022-12-09T10:44:23.158Z,1.88
2022-12-09T10:46:59.708Z,1.95
2022-12-09T10:49:33.314Z,1.99
2022-12-09T10:52:04.434Z,2.02
2022-12-09T10:54:38.650Z,2.10
2022-12-09T10:57:23.468Z,2.13
2022-12-09T11:00:07.085Z,2.17
2022-12-09T11:02:36.574Z,2.26
2022-12-09T11:05:25.470Z,2.27
2022-12-09T11:07:58.341Z,2.34
2022-12-09T11:10:30.717Z,2.37
2022-12-09T11:13:04.611Z,2.41
2022-12-09T11:15:59.292Z,2.45
2022-12-09T11:18:33.911Z,2.51
2022-12-09T11:21:06.945Z,2.58
2022-12-09T11:23:41.935Z,2.64
2022-12-09T11:26:24.763Z,2.68
2022-12-09T11:29:03.835Z,2.71
2022-12-09T11:31:53.905Z,2.79
2022-12-09T11:34:29.984Z,2.88
2022-12-09T11:37:02.206Z,3.02
2022-12-09T11:39:37.767Z,3.14
2022-12-09T11:42:24.386Z,3.21
2022-12-09T11:44:56.853Z,3.23
2022-12-09T11:47:50.351Z,3.27
2022-12-09T11:50:23.778Z,3.30
2022-12-09T11:53:17.320Z,3.31
2022-12-09T11:55:49.538Z,3.32
2022-12-09T11:58:26.010Z,3.28
2022-12-09T12:01:02.915Z,3.28
2022-12-09T12:03:40.139Z,3.21
2022-12-09T12:06:17.440Z,3.21
2022-12-09T12:08:51.495Z,3.20
2022-12-09T12:11:26.885Z,3.17
2022-12-09T12:14:06.807Z,3.14
2022-12-09T12:16:48.872Z,3.13
2022-12-09T12:19:28.345Z,3.14
2022-12-09T12:22:25.154Z,3.14
2022-12-09T12:25:25.992Z,3.16
2022-12-09T12:28:16.961Z,3.09
2022-12-09T12:30:55.636Z,3.04
2022-12-09T12:34:16.181Z,2.99
2022-12-09T12:36:47.492Z,2.90
2022-12-09T12:39:31.022Z,2.83
2022-12-09T12:42:13.800Z,2.76
2022-12-09T12:45:14.025Z,2.71
2022-12-09T12:47:48.952Z,2.67
2022-12-09T12:50:43.611Z,2.62
2022-12-09T12:53:29.670Z,2.57
2022-12-09T12:56:04.739Z,2.54
2022-12-09T12:58:51.998Z,2.47
2022-12-09T13:04:22.274Z,2.38
2022-12-09T13:06:57.657Z,2.34
2022-12-09T13:09:35.020Z,2.29
2022-12-09T13:12:11.588Z,2.26
2022-12-09T13:14:52.246Z,2.18
2022-12-09T13:17:31.589Z,2.14
2022-12-09T13:20:03.839Z,2.13
2022-12-09T13:22:47.613Z,2.06
2022-12-09T13:25:29.694Z,1.99
2022-12-09T13:28:16.234Z,1.93
2022-12-09T13:30:54.409Z,1.89
2022-12-09T13:33:44.634Z,1.79
2022-12-09T13:36:21.484Z,1.68
2022-12-09T13:38:52.016Z,1.65
2022-12-09T13:42:02.246Z,1.55
2022-12-09T13:44:34.586Z,1.44
2022-12-09T13:47:24.424Z,1.40
2022-12-09T13:49:57.618Z,1.30
2022-12-09T13:52:46.500Z,1.23
2022-12-09T13:55:33.716Z,1.12
2022-12-09T13:58:45.918Z,0.99
2022-12-09T14:01:25.652Z,0.88
2022-12-09T14:04:02.347Z,0.78
2022-12-09T14:06:35.617Z,0.74
2022-12-09T14:09:24.605Z,0.63
2022-12-09T14:11:54.983Z,0.56
2022-12-09T14:14:57.795Z,0.46
2022-12-09T14:18:04.618Z,0.34
2022-12-09T14:20:39.820Z,0.23
2022-12-09T14:23:20.507Z,0.15
2022-12-09T14:26:33.617Z,0.11
2022-12-09T14:29:03.491Z,-0.04
2022-12-09T14:31:57.961Z,-0.11
2022-12-09T14:34:34.321Z,-0.21
2022-12-09T14:37:30.674Z,-0.26
2022-12-09T14:40:18.769Z,-0.32
2022-12-09T14:42:58.096Z,-0.36
2022-12-09T14:45:36.526Z,-0.41
2022-12-09T14:48:11.804Z,-0.47
2022-12-09T14:50:47.634Z,-0.54
2022-12-09T14:53:24.816Z,-0.61
2022-12-09T14:55:54.806Z,-0.69
2022-12-09T14:58:29.987Z,-0.71
2022-12-09T15:01:06.114Z,-0.78
2022-12-09T15:03:54.911Z,-0.81
2022-12-09T15:06:27.158Z,-0.85
2022-12-09T15:08:59.828Z,-0.88
2022-12-09T15:11:37.318Z,-0.92
2022-12-09T15:14:27.736Z,-0.97
2022-12-09T15:16:59.060Z,-1.02
2022-12-09T15:19:59.110Z,-1.05
2022-12-09T15:22:24.117Z,-1.08
2022-12-09T15:24:56.163Z,-1.12
2022-12-09T15:27:28.719Z,-1.12
2022-12-09T15:29:59.356Z,-1.12
2022-12-09T15:32:30.396Z,-1.09
2022-12-09T15:35:25.887Z,-1.09
2022-12-09T15:37:57.129Z,-1.09
2022-12-09T15:40:31.658Z,-1.08
2022-12-09T15:43:12.619Z,-1.09
2022-12-09T15:45:44.723Z,-1.08
2022-12-09T15:48:35.858Z,-1.09
2022-12-09T15:51:19.170Z,-1.09
2022-12-09T15:54:00.213Z,-1.09
2022-12-09T15:56:35.843Z,-1.12
2022-12-09T15:59:11.992Z,-1.09
2022-12-09T16:01:49.945Z,-1.11
2022-12-09T16:04:22.756Z,-1.12
2022-12-09T16:06:52.254Z,-1.12
2022-12-09T16:09:25.040Z,-1.11
2022-12-09T16:11:55.020Z,-1.13
2022-12-09T16:14:26.710Z,-1.13
2022-12-09T16:17:01.218Z,-1.12
2022-12-09T16:19:38.378Z,-1.12
2022-12-09T16:22:28.327Z,-1.09
2022-12-09T16:25:15.283Z,-1.12
2022-12-09T16:27:50.922Z,-1.15
2022-12-09T16:30:26.089Z,-1.13
2022-12-09T16:33:02.460Z,-1.13
2022-12-09T16:35:42.779Z,-1.16
2022-12-09T16:38:21.418Z,-1.16
2022-12-09T16:41:21.667Z,-1.17
2022-12-09T16:44:00.147Z,-1.20
2022-12-09T16:47:02.769Z,-1.19
2022-12-09T16:49:34.797Z,-1.19
2022-12-09T16:52:13.201Z,-1.19
2022-12-09T16:54:46.658Z,-1.20
2022-12-09T16:57:21.401Z,-1.22
2022-12-09T17:00:01.728Z,-1.19
2022-12-09T17:02:41.576Z,-1.19
2022-12-09T17:05:15.316Z,-1.19
2022-12-09T17:07:48.770Z,-1.19
2022-12-09T17:10:20.300Z,-1.16
2022-12-09T17:12:56.529Z,-1.12
2022-12-09T17:15:26.626Z,-1.13
2022-12-09T17:17:56.941Z,-1.09
2022-12-09T17:20:26.262Z,-1.11
2022-12-09T17:22:56.228Z,-1.06
2022-12-09T17:25:29.171Z,-1.09
2022-12-09T17:28:03.647Z,-1.11
2022-12-09T17:30:38.500Z,-1.09
2022-12-09T17:33:09.942Z,-1.09
2022-12-09T17:35:40.088Z,-1.06
2022-12-09T17:38:10.013Z,-1.06
2022-12-09T17:40:39.055Z,-1.09
2022-12-09T17:43:15.822Z,-1.05
2022-12-09T17:45:48.417Z,-1.05
2022-12-09T17:48:21.993Z,-1.02
2022-12-09T17:50:52.097Z,-1.00
2022-12-09T17:53:21.116Z,-0.96
2022-12-09T17:55:50.361Z,-0.96
2022-12-09T17:58:24.051Z,-0.93
2022-12-09T18:00:56.406Z,-0.90
2022-12-09T18:03:53.734Z,-0.85
2022-12-09T18:06:17.972Z,-0.81
2022-12-09T18:08:50.434Z,-0.77
2022-12-09T18:11:24.881Z,-0.72
2022-12-09T18:13:57.690Z,-0.74
2022-12-09T18:16:26.912Z,-0.71
2022-12-09T18:19:03.333Z,-0.71
2022-12-09T18:21:36.989Z,-0.69
2022-12-09T18:24:07.318Z,-0.64
2022-12-09T18:26:42.226Z,-0.61
2022-12-09T18:29:14.787Z,-0.54
2022-12-09T18:31:56.564Z,-0.50
2022-12-09T18:34:28.496Z,-0.44
2022-12-09T18:36:58.261Z,-0.41
2022-12-09T18:39:36.834Z,-0.37
2022-12-09T18:42:06.850Z,-0.34
2022-12-09T18:44:42.084Z,-0.32
2022-12-09T18:47:11.291Z,-0.26
2022-12-09T18:49:40.601Z,-0.23
2022-12-09T18:52:09.499Z,-0.18
2022-12-09T18:54:39.772Z,-0.15
2022-12-09T18:57:08.750Z,-0.09
2022-12-09T18:59:38.211Z,-0.08
2022-12-09T19:02:09.434Z,-0.08
2022-12-09T19:04:39.366Z,-0.05
2022-12-09T19:07:13.762Z,-0.01
2022-12-09T19:09:42.783Z,-0.01
2022-12-09T19:12:45.337Z,-0.01
2022-12-09T19:15:03.243Z,0.01
2022-12-09T19:17:33.203Z,0.04
2022-12-09T19:20:02.820Z,0.04
2022-12-09T19:22:32.441Z,0.06
2022-12-09T19:25:02.141Z,0.08
2022-12-09T19:27:33.793Z,0.11
2022-12-09T19:30:02.936Z,0.09
2022-12-09T19:32:52.785Z,0.11
2022-12-09T19:35:28.546Z,0.14
2022-12-09T19:38:01.561Z,0.15
2022-12-09T19:40:39.752Z,0.16
2022-12-09T19:43:18.867Z,0.16
2022-12-09T19:45:48.035Z,0.19
2022-12-09T19:48:17.978Z,0.21
2022-12-09T19:50:47.072Z,0.19
2022-12-09T19:53:20.255Z,0.18
2022-12-09T19:55:49.244Z,0.22
2022-12-09T19:58:23.071Z,0.26
2022-12-09T20:00:54.743Z,0.22
2022-12-09T20:03:24.761Z,0.26
2022-12-09T20:05:55.752Z,0.26
2022-12-09T20:08:25.330Z,0.28
2022-12-09T20:10:54.583Z,0.30
2022-12-09T20:13:28.612Z,0.29
2022-12-09T20:16:05.301Z,0.30
2022-12-09T20:18:47.931Z,0.28
2022-12-09T20:21:25.375Z,0.29
2022-12-09T20:23:59.707Z,0.30
2022-12-09T20:26:37.377Z,0.30
2022-12-09T20:29:12.936Z,0.29
2022-12-09T20:31:45.386Z,0.30
2022-12-09T20:34:15.912Z,0.29
2022-12-09T20:36:45.858Z,0.33
2022-12-09T20:39:18.805Z,0.32
2022-12-09T20:41:58.871Z,0.33
2022-12-09T20:44:27.644Z,0.32
2022-12-09T20:46:59.514Z,0.34
2022-12-09T20:49:29.263Z,0.34
2022-12-09T20:52:00.697Z,0.34
2022-12-09T20:54:29.485Z,0.36
2022-12-09T20:56:58.485Z,0.37
2022-12-09T20:59:29.946Z,0.36
2022-12-09T21:02:02.179Z,0.37
2022-12-09T21:04:34.330Z,0.36
2022-12-09T21:07:13.143Z,0.37
2022-12-09T21:09:41.820Z,0.39
2022-12-09T21:12:10.890Z,0.39
2022-12-09T21:14:39.932Z,0.42
2022-12-09T21:17:10.437Z,0.42
2022-12-09T21:19:39.273Z,0.42
2022-12-09T21:22:08.185Z,0.42
2022-12-09T21:24:37.493Z,0.42
2022-12-09T21:27:06.511Z,0.42
2022-12-09T21:29:37.320Z,0.44
2022-12-09T21:32:06.182Z,0.43
2022-12-09T21:34:40.312Z,0.49
2022-12-09T21:37:11.176Z,0.49
2022-12-09T21:39:40.112Z,0.50
2022-12-09T21:42:09.082Z,0.51
2022-12-09T21:44:42.666Z,0.53
2022-12-09T21:47:12.257Z,0.54
2022-12-09T21:49:41.026Z,0.54
2022-12-09T21:52:10.446Z,0.56
2022-12-09T21:54:40.298Z,0.57
2022-12-09T21:57:09.163Z,0.56
2022-12-09T21:59:38.064Z,0.57
2022-12-09T22:02:07.873Z,0.59
2022-12-09T22:04:38.299Z,0.59
2022-12-09T22:07:07.069Z,0.61
2022-12-09T22:09:39.683Z,0.61
2022-12-09T22:12:09.442Z,0.61
2022-12-09T22:14:40.965Z,0.61
2022-12-09T22:17:09.658Z,0.63
2022-12-09T22:19:41.487Z,0.61
2022-12-09T22:22:12.933Z,0.63
2022-12-09T22:24:41.988Z,0.64
2022-12-09T22:27:13.714Z,0.65
2022-12-09T22:29:54.046Z,0.67
2022-12-09T22:32:23.740Z,0.67
2022-12-09T22:34:54.991Z,0.68
2022-12-09T22:37:43.902Z,0.70
2022-12-09T22:40:14.502Z,0.71
2022-12-09T22:42:43.439Z,0.71
2022-12-09T22:45:12.487Z,0.72
2022-12-09T22:47:43.503Z,0.72
2022-12-09T22:50:13.354Z,0.71
2022-12-09T22:52:42.208Z,0.71
2022-12-09T22:55:11.004Z,0.72
2022-12-09T22:57:39.921Z,0.75
2022-12-09T23:00:11.292Z,0.71
2022-12-09T23:02:40.983Z,0.74
2022-12-09T23:05:13.012Z,0.74
2022-12-09T23:07:42.043Z,0.72
2022-12-09T23:10:11.195Z,0.77
2022-12-09T23:12:40.058Z,0.71
2022-12-09T23:15:09.983Z,0.74
2022-12-09T23:17:42.499Z,0.74
2022-12-09T23:20:12.458Z,0.74
2022-12-09T23:22:44.296Z,0.74
2022-12-09T23:25:13.155Z,0.72
2022-12-09T23:27:42.207Z,0.72
2022-12-09T23:30:13.910Z,0.71
2022-12-09T23:32:43.095Z,0.72
2022-12-09T23:35:15.172Z,0.77
2022-12-09T23:37:44.088Z,0.71
2022-12-09T23:40:15.407Z,0.72
2022-12-09T23:42:44.252Z,0.72
2022-12-09T23:45:13.133Z,0.71
2022-12-09T23:47:41.956Z,0.71
2022-12-09T23:50:11.182Z,0.71
2022-12-09T23:52:40.140Z,0.70
2022-12-09T23:55:10.294Z,0.72
2022-12-09T23:57:39.079Z,0.70
